createdAt,value
2022-09-01T00:01:18.525Z,97144.47
2022-09-01T00:06:23.624Z,97149.63
2022-09-01T00:11:28.642Z,97134.84
2022-09-01T00:16:32.207Z,97139.31
2022-09-01T00:21:40.548Z,97138.53
2022-09-01T00:26:44.819Z,97140.44
2022-09-01T00:31:48.936Z,97141.59
2022-09-01T00:36:52.983Z,97146.06
2022-09-01T00:41:56.901Z,97142.72
2022-09-01T00:47:00.691Z,97142.84
2022-09-01T00:52:15.739Z,97148.03
2022-09-01T00:57:19.698Z,97151.44
2022-09-01T01:02:23.273Z,97135.97
2022-09-01T01:07:28.799Z,97149.78
2022-09-01T01:12:32.096Z,97150.31
2022-09-01T01:17:36.878Z,97148.38
2022-09-01T01:22:57.672Z,97152.38
2022-09-01T01:28:29.646Z,97148.84
2022-09-01T01:33:46.082Z,97139.84
2022-09-01T01:38:50.551Z,97154.97
2022-09-01T01:43:55.267Z,97151.25
2022-09-01T01:48:59.841Z,97139.50
2022-09-01T01:54:03.726Z,97155.41
2022-09-01T01:59:09.634Z,97159.94
2022-09-01T02:04:13.865Z,97155.44
2022-09-01T02:09:22.067Z,97156.84
2022-09-01T02:14:28.639Z,97156.06
2022-09-01T02:19:35.059Z,97155.09
2022-09-01T02:24:39.370Z,97157.50
2022-09-01T02:29:43.572Z,97161.03
2022-09-01T02:34:52.731Z,97160.41
2022-09-01T02:40:00.164Z,97168.59
2022-09-01T02:45:12.185Z,97165.41
2022-09-01T02:50:16.134Z,97174.69
2022-09-01T02:55:21.572Z,97183.72
2022-09-01T03:00:25.526Z,97188.06
2022-09-01T03:05:31.676Z,97188.22
2022-09-01T03:10:38.492Z,97188.22
2022-09-01T03:15:42.680Z,97178.56
2022-09-01T03:20:47.836Z,97187.09
2022-09-01T03:25:52.525Z,97194.97
2022-09-01T03:30:58.048Z,97197.06
2022-09-01T03:36:01.978Z,97206.56
2022-09-01T03:41:06.175Z,97202.84
2022-09-01T03:46:10.170Z,97209.63
2022-09-01T03:51:14.154Z,97213.34
2022-09-01T03:56:17.809Z,97216.69
2022-09-01T04:01:24.820Z,97214.97
2022-09-01T04:06:34.081Z,97203.53
2022-09-01T04:11:42.461Z,97217.84
2022-09-01T04:16:49.328Z,97205.78
2022-09-01T04:21:55.970Z,97205.63
2022-09-01T04:27:02.687Z,97206.56
2022-09-01T04:32:08.866Z,97200.59
2022-09-01T04:37:21.771Z,97200.56
2022-09-01T04:42:38.049Z,97195.22
2022-09-01T04:47:42.449Z,97192.63
2022-09-01T04:52:50.951Z,97196.94
2022-09-01T04:58:10.080Z,97195.81
2022-09-01T05:03:14.390Z,97196.44
2022-09-01T05:08:37.814Z,97206.81
2022-09-01T05:13:48.613Z,97200.47
2022-09-01T05:18:53.694Z,97188.28
2022-09-01T05:24:01.258Z,97194.03
2022-09-01T05:29:06.089Z,97191.41
2022-09-01T05:34:10.737Z,97207.94
2022-09-01T05:39:17.426Z,97196.00
2022-09-01T05:44:22.783Z,97193.50
2022-09-01T05:49:28.077Z,97186.22
2022-09-01T05:54:34.576Z,97202.47
2022-09-01T05:59:40.323Z,97195.09
2022-09-01T06:04:50.818Z,97195.69
2022-09-01T06:10:02.090Z,97199.19
2022-09-01T06:15:07.175Z,97198.28
2022-09-01T06:20:11.168Z,97195.94
2022-09-01T06:25:19.686Z,97200.44
2022-09-01T06:30:27.057Z,97202.66
2022-09-01T06:35:45.353Z,97207.72
2022-09-01T06:40:51.038Z,97203.00
2022-09-01T06:46:02.341Z,97216.63
2022-09-01T06:51:22.176Z,97215.38
2022-09-01T06:56:33.888Z,97211.81
2022-09-01T07:01:46.749Z,97206.22
2022-09-01T07:07:01.532Z,97213.88
2022-09-01T07:12:35.060Z,97211.47
2022-09-01T07:17:38.989Z,97218.72
2022-09-01T07:28:06.804Z,97206.06
2022-09-01T07:39:48.758Z,97205.03
2022-09-01T07:44:10.545Z,97199.28
2022-09-01T07:50:24.106Z,97192.94
2022-09-01T07:55:17.633Z,97193.53
2022-09-01T08:00:21.651Z,97192.91
2022-09-01T08:05:31.628Z,97188.88
2022-09-01T08:10:42.685Z,97192.44
2022-09-01T08:21:14.219Z,97191.59
2022-09-01T08:26:37.741Z,97179.72
2022-09-01T08:31:42.316Z,97185.50
2022-09-01T08:36:46.439Z,97182.75
2022-09-01T08:42:09.587Z,97172.50
2022-09-01T08:47:39.303Z,97174.81
2022-09-01T08:52:57.523Z,97167.63
2022-09-01T08:58:02.197Z,97163.72
2022-09-01T09:03:40.763Z,97163.22
2022-09-01T09:09:01.279Z,97174.06
2022-09-01T09:14:31.713Z,97155.75
2022-09-01T09:19:41.737Z,97164.28
2022-09-01T09:24:53.453Z,97154.19
2022-09-01T09:30:03.007Z,97151.19
2022-09-01T09:35:31.649Z,97161.41
2022-09-01T09:40:53.267Z,97155.56
2022-09-01T09:46:28.223Z,97156.72
2022-09-01T09:51:31.807Z,97151.19
2022-09-01T09:56:36.068Z,97150.47
2022-09-01T10:01:39.797Z,97145.41
2022-09-01T10:06:45.557Z,97151.63
2022-09-01T10:11:55.514Z,97140.50
2022-09-01T10:17:13.815Z,97145.59
2022-09-01T10:22:20.659Z,97139.63
2022-09-01T10:27:27.440Z,97157.47
2022-09-01T10:32:55.342Z,97145.94
2022-09-01T10:38:01.477Z,97151.94
2022-09-01T10:43:26.367Z,97154.13
2022-09-01T10:48:45.471Z,97159.22
2022-09-01T10:53:54.364Z,97153.16
2022-09-01T11:05:04.298Z,97151.19
2022-09-01T11:10:35.574Z,97154.50
2022-09-01T11:15:50.129Z,97150.03
2022-09-01T11:20:57.910Z,97146.41
2022-09-01T11:26:48.322Z,97151.25
2022-09-01T11:31:52.431Z,97147.03
2022-09-01T11:36:59.372Z,97148.28
2022-09-01T11:42:10.749Z,97141.91
2022-09-01T11:47:32.654Z,97141.38
2022-09-01T11:52:38.923Z,97149.44
2022-09-01T11:57:45.395Z,97129.25
2022-09-01T12:02:54.458Z,97133.97
2022-09-01T12:08:03.118Z,97128.38
2022-09-01T12:13:12.084Z,97123.56
2022-09-01T12:18:26.465Z,97116.69
2022-09-01T12:23:34.355Z,97120.38
2022-09-01T12:28:42.775Z,97109.22
2022-09-01T12:33:47.991Z,97112.31
2022-09-01T12:38:53.638Z,97110.56
2022-09-01T12:44:30.596Z,97096.50
2022-09-01T12:49:48.001Z,97101.53
2022-09-01T12:54:59.869Z,97100.72
2022-09-01T13:00:12.848Z,97101.16
2022-09-01T13:05:29.962Z,97107.69
2022-09-01T13:10:47.556Z,97105.22
2022-09-01T13:15:57.056Z,97100.56
2022-09-01T13:21:01.479Z,97092.53
2022-09-01T13:26:05.017Z,97099.41
2022-09-01T13:36:51.745Z,97097.72
2022-09-01T13:41:56.186Z,97092.78
2022-09-01T13:53:03.179Z,97087.09
2022-09-01T13:58:10.198Z,97095.81
2022-09-01T14:03:23.197Z,97085.50
2022-09-01T14:08:29.137Z,97080.00
2022-09-01T14:13:39.465Z,97088.59
2022-09-01T14:18:43.391Z,97077.59
2022-09-01T14:23:47.441Z,97077.25
2022-09-01T14:28:51.249Z,97075.50
2022-09-01T14:34:02.200Z,97076.06
2022-09-01T14:39:06.379Z,97071.00
2022-09-01T14:44:10.647Z,97070.44
2022-09-01T14:49:14.156Z,97070.53
2022-09-01T14:54:18.647Z,97071.09
2022-09-01T14:59:34.540Z,97075.03
2022-09-01T15:04:39.254Z,97068.69
2022-09-01T15:09:43.251Z,97068.69
2022-09-01T15:14:46.676Z,97062.16
2022-09-01T15:19:50.196Z,97065.91
2022-09-01T15:24:53.451Z,97071.91
2022-09-01T15:29:58.255Z,97071.81
2022-09-01T15:35:01.625Z,97067.66
2022-09-01T15:40:07.752Z,97070.69
2022-09-01T15:45:24.476Z,97072.34
2022-09-01T15:50:29.197Z,97068.03
2022-09-01T15:55:42.378Z,97068.56
2022-09-01T16:00:46.339Z,97061.06
2022-09-01T16:05:49.775Z,97064.34
2022-09-01T16:10:57.244Z,97067.91
2022-09-01T16:16:12.965Z,97074.25
2022-09-01T16:21:31.987Z,97077.97
2022-09-01T16:26:43.399Z,97083.31
2022-09-01T16:31:56.489Z,97088.31
2022-09-01T16:37:29.831Z,97085.09
2022-09-01T16:42:48.020Z,97086.72
2022-09-01T16:48:00.907Z,97088.69
2022-09-01T16:53:25.673Z,97091.94
2022-09-01T16:58:47.521Z,97087.13
2022-09-01T17:04:00.072Z,97093.56
2022-09-01T17:09:18.368Z,97091.50
2022-09-01T17:14:43.136Z,97099.88
2022-09-01T17:19:47.336Z,97103.06
2022-09-01T17:30:08.244Z,97125.13
2022-09-01T17:35:33.302Z,97131.41
2022-09-01T17:41:04.298Z,97132.88
2022-09-01T17:46:46.310Z,97130.31
2022-09-01T17:52:02.345Z,97127.06
2022-09-01T17:57:20.331Z,97138.69
2022-09-01T18:02:27.434Z,97136.28
2022-09-01T18:07:51.914Z,97135.78
2022-09-01T18:13:06.934Z,97147.38
2022-09-01T18:18:20.810Z,97148.34
2022-09-01T18:23:28.149Z,97149.00
2022-09-01T18:28:34.483Z,97152.38
2022-09-01T18:33:53.256Z,97147.22
2022-09-01T18:39:14.647Z,97131.47
2022-09-01T18:44:36.011Z,97134.84
2022-09-01T18:49:48.588Z,97134.34
2022-09-01T18:55:18.507Z,97141.25
2022-09-01T19:00:30.589Z,97134.84
2022-09-01T19:05:54.332Z,97135.13
2022-09-01T19:11:18.820Z,97136.59
2022-09-01T19:16:48.128Z,97133.41
2022-09-01T19:21:57.870Z,97133.41
2022-09-01T19:27:38.750Z,97129.34
2022-09-01T19:32:46.397Z,97135.16
2022-09-01T19:37:51.275Z,97136.44
2022-09-01T19:43:06.435Z,97139.66
2022-09-01T19:48:13.304Z,97131.47
2022-09-01T19:53:43.048Z,97152.22
2022-09-01T19:58:56.928Z,97160.75
2022-09-01T20:04:10.963Z,97158.81
2022-09-01T20:09:21.862Z,97162.81
2022-09-01T20:14:44.092Z,97167.47
2022-09-01T20:20:08.902Z,97168.75
2022-09-01T20:25:16.495Z,97165.22
2022-09-01T20:30:28.990Z,97173.41
2022-09-01T20:35:44.676Z,97171.00
2022-09-01T20:40:48.544Z,97171.66
2022-09-01T20:45:53.449Z,97177.44
2022-09-01T20:51:14.444Z,97184.34
2022-09-01T20:56:29.427Z,97176.66
2022-09-01T21:01:48.926Z,97179.69
2022-09-01T21:07:09.743Z,97175.22
2022-09-01T21:12:27.994Z,97175.69
2022-09-01T21:17:49.915Z,97180.97
2022-09-01T21:22:55.462Z,97174.06
2022-09-01T21:28:02.477Z,97181.00
2022-09-01T21:33:05.942Z,97192.72
2022-09-01T21:38:09.426Z,97197.88
2022-09-01T21:43:26.037Z,97179.53
2022-09-01T21:48:30.823Z,97196.41
2022-09-01T21:53:34.282Z,97178.25
2022-09-01T21:58:38.877Z,97178.56
2022-09-01T22:03:42.708Z,97174.25
2022-09-01T22:08:46.402Z,97173.59
2022-09-01T22:13:50.565Z,97181.59
2022-09-01T22:18:54.135Z,97173.25
2022-09-01T22:23:58.203Z,97168.59
2022-09-01T22:29:04.770Z,97164.75
2022-09-01T22:34:13.953Z,97160.88
2022-09-01T22:39:19.233Z,97165.38
2022-09-01T22:44:26.492Z,97157.19
2022-09-01T22:49:29.946Z,97150.41
2022-09-01T22:54:33.418Z,97153.63
2022-09-01T22:59:36.714Z,97137.09
2022-09-01T23:04:42.874Z,97144.47
2022-09-01T23:09:46.274Z,97138.22
2022-09-01T23:14:49.810Z,97150.09
2022-09-01T23:19:53.246Z,97139.78
2022-09-01T23:24:58.552Z,97154.59
2022-09-01T23:30:05.382Z,97158.78
2022-09-01T23:35:09.456Z,97143.19
2022-09-01T23:40:22.298Z,97172.63
2022-09-01T23:45:27.575Z,97168.28
2022-09-01T23:50:49.540Z,97180.81
2022-09-01T23:56:01.550Z,97162.47
